sensor_id;sensor_type;location;lat;lon;timestamp;pressure;altitude;pressure_sealevel;temperature;humidity
65534;BME280;53640;55.838;37.184;2023-09-19T00:00:46;99708.97;;;11.03;56.97
65534;BME280;53640;55.838;37.184;2023-09-19T00:03:13;99699.38;;;11.00;57.33
65534;BME280;53640;55.838;37.184;2023-09-19T00:05:39;99694.81;;;10.94;57.81
65534;BME280;53640;55.838;37.184;2023-09-19T00:08:06;99666.94;;;10.74;57.84
65534;BME280;53640;55.838;37.184;2023-09-19T00:10:33;99695.66;;;10.88;57.95
65534;BME280;53640;55.838;37.184;2023-09-19T00:13:02;99702.53;;;10.91;57.96
65534;BME280;53640;55.838;37.184;2023-09-19T00:15:40;99669.47;;;10.69;58.13
65534;BME280;53640;55.838;37.184;2023-09-19T00:18:07;99702.13;;;10.87;58.17
65534;BME280;53640;55.838;37.184;2023-09-19T00:20:38;99696.72;;;10.81;58.27
65534;BME280;53640;55.838;37.184;2023-09-19T00:23:05;99689.03;;;10.77;58.17
65534;BME280;53640;55.838;37.184;2023-09-19T00:25:31;99699.84;;;10.77;58.49
65534;BME280;53640;55.838;37.184;2023-09-19T00:28:04;99695.25;;;10.78;58.33
65534;BME280;53640;55.838;37.184;2023-09-19T00:30:34;99697.38;;;10.76;58.24
65534;BME280;53640;55.838;37.184;2023-09-19T00:33:00;99680.72;;;10.72;58.35
65534;BME280;53640;55.838;37.184;2023-09-19T00:35:27;99641.53;;;10.48;58.38
65534;BME280;53640;55.838;37.184;2023-09-19T00:37:54;99668.41;;;10.70;58.18
65534;BME280;53640;55.838;37.184;2023-09-19T00:40:21;99693.16;;;10.87;58.26
65534;BME280;53640;55.838;37.184;2023-09-19T00:42:48;99695.03;;;10.86;58.24
65534;BME280;53640;55.838;37.184;2023-09-19T00:45:18;99656.34;;;10.66;57.80
65534;BME280;53640;55.838;37.184;2023-09-19T00:47:51;99689.00;;;10.84;57.87
65534;BME280;53640;55.838;37.184;2023-09-19T00:50:19;99693.78;;;10.82;57.30
65534;BME280;53640;55.838;37.184;2023-09-19T00:52:48;99685.91;;;10.81;57.15
65534;BME280;53640;55.838;37.184;2023-09-19T00:55:16;99675.06;;;10.74;57.14
65534;BME280;53640;55.838;37.184;2023-09-19T00:57:46;99682.13;;;10.75;56.96
65534;BME280;53640;55.838;37.184;2023-09-19T01:00:13;99690.06;;;10.76;57.00
65534;BME280;53640;55.838;37.184;2023-09-19T01:02:45;99690.69;;;10.72;57.15
65534;BME280;53640;55.838;37.184;2023-09-19T01:05:13;99661.53;;;10.54;56.72
65534;BME280;53640;55.838;37.184;2023-09-19T01:07:39;99665.50;;;10.58;57.10
65534;BME280;53640;55.838;37.184;2023-09-19T01:10:14;99687.16;;;10.65;57.03
65534;BME280;53640;55.838;37.184;2023-09-19T01:12:57;99667.97;;;10.53;56.77
65534;BME280;53640;55.838;37.184;2023-09-19T01:21:11;99693.41;;;10.39;56.77
65534;BME280;53640;55.838;37.184;2023-09-19T01:31:59;99684.22;;;10.06;57.22
65534;BME280;53640;55.838;37.184;2023-09-19T01:37:19;99675.06;;;9.94;57.73
65534;BME280;53640;55.838;37.184;2023-09-19T01:39:50;99677.34;;;9.91;57.89
65534;BME280;53640;55.838;37.184;2023-09-19T01:42:35;99633.81;;;9.66;58.48
65534;BME280;53640;55.838;37.184;2023-09-19T01:45:12;99667.53;;;9.76;58.23
65534;BME280;53640;55.838;37.184;2023-09-19T01:47:51;99652.13;;;9.64;58.69
65534;BME280;53640;55.838;37.184;2023-09-19T01:53:21;99670.00;;;9.65;58.79
65534;BME280;53640;55.838;37.184;2023-09-19T01:55:50;99641.91;;;9.52;58.78
65534;BME280;53640;55.838;37.184;2023-09-19T01:58:27;99672.91;;;9.70;58.95
65534;BME280;53640;55.838;37.184;2023-09-19T02:00:56;99631.13;;;9.52;58.90
65534;BME280;53640;55.838;37.184;2023-09-19T02:03:25;99642.56;;;9.68;59.07
65534;BME280;53640;55.838;37.184;2023-09-19T02:05:53;99654.03;;;9.76;58.67
65534;BME280;53640;55.838;37.184;2023-09-19T02:08:22;99648.41;;;9.78;58.67
65534;BME280;53640;55.838;37.184;2023-09-19T02:10:52;99631.97;;;9.73;58.73
65534;BME280;53640;55.838;37.184;2023-09-19T02:13:20;99645.50;;;9.79;58.94
65534;BME280;53640;55.838;37.184;2023-09-19T02:15:47;99629.66;;;9.70;58.96
65534;BME280;53640;55.838;37.184;2023-09-19T02:18:13;99640.50;;;9.76;59.00
65534;BME280;53640;55.838;37.184;2023-09-19T02:20:42;99600.97;;;9.55;59.05
65534;BME280;53640;55.838;37.184;2023-09-19T02:23:09;99602.81;;;9.55;59.36
65534;BME280;53640;55.838;37.184;2023-09-19T02:25:36;99602.22;;;9.53;59.43
65534;BME280;53640;55.838;37.184;2023-09-19T02:28:04;99605.13;;;9.58;59.91
65534;BME280;53640;55.838;37.184;2023-09-19T02:30:32;99621.13;;;9.66;60.15
65534;BME280;53640;55.838;37.184;2023-09-19T02:32:59;99619.25;;;9.67;60.41
65534;BME280;53640;55.838;37.184;2023-09-19T02:35:28;99636.16;;;9.75;59.84
65534;BME280;53640;55.838;37.184;2023-09-19T02:37:54;99592.66;;;9.57;59.64
65534;BME280;53640;55.838;37.184;2023-09-19T02:40:20;99628.88;;;9.82;59.79
65534;BME280;53640;55.838;37.184;2023-09-19T02:42:55;99629.06;;;9.88;59.38
65534;BME280;53640;55.838;37.184;2023-09-19T02:45:23;99602.03;;;9.74;59.53
65534;BME280;53640;55.838;37.184;2023-09-19T02:47:49;99597.88;;;9.78;59.25
65534;BME280;53640;55.838;37.184;2023-09-19T02:50:16;99635.75;;;10.05;58.89
65534;BME280;53640;55.838;37.184;2023-09-19T02:52:44;99598.09;;;9.90;59.22
65534;BME280;53640;55.838;37.184;2023-09-19T02:55:18;99619.31;;;10.06;59.07
65534;BME280;53640;55.838;37.184;2023-09-19T02:57:46;99617.25;;;10.09;58.79
65534;BME280;53640;55.838;37.184;2023-09-19T03:00:13;99597.69;;;9.93;58.66
65534;BME280;53640;55.838;37.184;2023-09-19T03:02:40;99611.84;;;10.09;58.53
65534;BME280;53640;55.838;37.184;2023-09-19T03:05:07;99625.34;;;10.22;58.54
65534;BME280;53640;55.838;37.184;2023-09-19T03:07:35;99608.06;;;10.10;58.50
65534;BME280;53640;55.838;37.184;2023-09-19T03:10:06;99628.69;;;10.24;58.59
65534;BME280;53640;55.838;37.184;2023-09-19T03:12:33;99618.69;;;10.18;58.18
65534;BME280;53640;55.838;37.184;2023-09-19T03:15:01;99632.81;;;10.26;58.12
65534;BME280;53640;55.838;37.184;2023-09-19T03:17:30;99606.19;;;10.10;57.82
65534;BME280;53640;55.838;37.184;2023-09-19T03:19:56;99602.66;;;10.03;58.00
65534;BME280;53640;55.838;37.184;2023-09-19T03:22:23;99605.59;;;10.01;58.30
65534;BME280;53640;55.838;37.184;2023-09-19T03:24:50;99643.44;;;10.15;58.50
65534;BME280;53640;55.838;37.184;2023-09-19T03:27:17;99645.13;;;10.09;58.57
65534;BME280;53640;55.838;37.184;2023-09-19T03:29:43;99614.50;;;9.89;58.58
65534;BME280;53640;55.838;37.184;2023-09-19T03:32:10;99640.09;;;9.99;58.66
65534;BME280;53640;55.838;37.184;2023-09-19T03:34:38;99614.72;;;9.80;59.15
65534;BME280;53640;55.838;37.184;2023-09-19T03:37:11;99606.41;;;9.75;59.44
65534;BME280;53640;55.838;37.184;2023-09-19T03:39:37;99639.06;;;9.87;59.25
65534;BME280;53640;55.838;37.184;2023-09-19T03:42:04;99626.38;;;9.74;59.59
65534;BME280;53640;55.838;37.184;2023-09-19T03:44:34;99621.16;;;9.73;59.69
65534;BME280;53640;55.838;37.184;2023-09-19T03:47:00;99615.97;;;9.71;59.62
65534;BME280;53640;55.838;37.184;2023-09-19T03:49:27;99631.78;;;9.81;59.75
65534;BME280;53640;55.838;37.184;2023-09-19T03:51:53;99600.56;;;9.65;59.44
65534;BME280;53640;55.838;37.184;2023-09-19T03:54:20;99628.25;;;9.87;59.42
65534;BME280;53640;55.838;37.184;2023-09-19T03:56:46;99611.19;;;9.80;59.63
65534;BME280;53640;55.838;37.184;2023-09-19T03:59:13;99627.00;;;9.96;59.94
65534;BME280;53640;55.838;37.184;2023-09-19T04:01:39;99627.22;;;10.01;59.58
65534;BME280;53640;55.838;37.184;2023-09-19T04:04:07;99635.13;;;10.10;59.75
65534;BME280;53640;55.838;37.184;2023-09-19T04:06:36;99620.34;;;10.05;59.74
65534;BME280;53640;55.838;37.184;2023-09-19T04:09:03;99630.97;;;10.14;59.83
65534;BME280;53640;55.838;37.184;2023-09-19T04:11:30;99616.19;;;10.10;59.90
65534;BME280;53640;55.838;37.184;2023-09-19T04:13:57;99604.53;;;10.02;60.76
65534;BME280;53640;55.838;37.184;2023-09-19T04:16:23;99610.59;;;10.04;60.38
65534;BME280;53640;55.838;37.184;2023-09-19T04:18:49;99610.59;;;10.04;60.68
65534;BME280;53640;55.838;37.184;2023-09-19T04:21:16;99606.63;;;10.07;61.09
65534;BME280;53640;55.838;37.184;2023-09-19T04:23:42;99560.88;;;9.79;61.34
65534;BME280;53640;55.838;37.184;2023-09-19T04:26:09;99595.19;;;9.98;61.79
65534;BME280;53640;55.838;37.184;2023-09-19T04:28:35;99594.13;;;9.99;61.89
65534;BME280;53640;55.838;37.184;2023-09-19T04:31:04;99573.94;;;9.89;61.64
65534;BME280;53640;55.838;37.184;2023-09-19T04:33:30;99577.91;;;9.93;61.98
65534;BME280;53640;55.838;37.184;2023-09-19T04:35:56;99594.78;;;10.01;62.07
65534;BME280;53640;55.838;37.184;2023-09-19T04:38:23;99597.88;;;9.98;62.41
65534;BME280;53640;55.838;37.184;2023-09-19T04:40:50;99591.41;;;9.93;62.80
65534;BME280;53640;55.838;37.184;2023-09-19T04:43:16;99567.53;;;9.83;62.75
65534;BME280;53640;55.838;37.184;2023-09-19T04:45:43;99572.31;;;9.94;62.45
65534;BME280;53640;55.838;37.184;2023-09-19T04:48:09;99583.13;;;10.01;63.13
65534;BME280;53640;55.838;37.184;2023-09-19T04:50:36;99556.06;;;9.81;62.69
65534;BME280;53640;55.838;37.184;2023-09-19T04:53:03;99571.47;;;9.94;62.89
65534;BME280;53640;55.838;37.184;2023-09-19T04:55:30;99598.91;;;10.04;63.21
65534;BME280;53640;55.838;37.184;2023-09-19T04:57:58;99600.59;;;10.05;62.99
65534;BME280;53640;55.838;37.184;2023-09-19T05:00:25;99596.63;;;10.07;63.00
65534;BME280;53640;55.838;37.184;2023-09-19T05:02:57;99602.66;;;10.16;63.10
65534;BME280;53640;55.838;37.184;2023-09-19T05:05:23;99582.69;;;10.11;63.04
65534;BME280;53640;55.838;37.184;2023-09-19T05:07:51;99582.06;;;10.22;63.37
65534;BME280;53640;55.838;37.184;2023-09-19T05:10:21;99592.66;;;10.30;63.42
65534;BME280;53640;55.838;37.184;2023-09-19T05:12:47;99563.94;;;10.22;63.31
65534;BME280;53640;55.838;37.184;2023-09-19T05:15:16;99574.75;;;10.42;63.42
65534;BME280;53640;55.838;37.184;2023-09-19T05:17:50;99585.94;;;10.59;63.48
65534;BME280;53640;55.838;37.184;2023-09-19T05:20:17;99582.59;;;10.70;63.09
65534;BME280;53640;55.838;37.184;2023-09-19T05:23:05;99556.78;;;10.68;62.98
65534;BME280;53640;55.838;37.184;2023-09-19T05:25:36;99571.25;;;10.93;63.08
65534;BME280;53640;55.838;37.184;2023-09-19T05:28:03;99582.84;;;11.14;62.72
65534;BME280;53640;55.838;37.184;2023-09-19T05:30:32;99579.41;;;11.32;62.61
65534;BME280;53640;55.838;37.184;2023-09-19T05:32:59;99574.31;;;11.48;62.28
65534;BME280;53640;55.838;37.184;2023-09-19T05:35:26;99579.38;;;11.70;62.10
65534;BME280;53640;55.838;37.184;2023-09-19T05:37:53;99568.03;;;11.86;61.72
65534;BME280;53640;55.838;37.184;2023-09-19T05:40:21;99568.91;;;12.05;60.99
65534;BME280;53640;55.838;37.184;2023-09-19T05:42:48;99569.97;;;12.22;61.03
65534;BME280;53640;55.838;37.184;2023-09-19T05:45:17;99560.88;;;12.35;60.76
65534;BME280;53640;55.838;37.184;2023-09-19T05:47:49;99572.22;;;12.51;60.10
65534;BME280;53640;55.838;37.184;2023-09-19T05:50:16;99580.28;;;12.57;60.04
65534;BME280;53640;55.838;37.184;2023-09-19T05:52:42;99544.69;;;12.47;59.59
65534;BME280;53640;55.838;37.184;2023-09-19T05:55:11;99574.66;;;12.77;59.57
65534;BME280;53640;55.838;37.184;2023-09-19T05:57:38;99559.41;;;12.76;59.05
65534;BME280;53640;55.838;37.184;2023-09-19T06:00:10;99578.63;;;12.93;58.55
65534;BME280;53640;55.838;37.184;2023-09-19T06:02:40;99576.72;;;13.12;58.61
65534;BME280;53640;55.838;37.184;2023-09-19T06:05:07;99544.06;;;13.00;58.04
65534;BME280;53640;55.838;37.184;2023-09-19T06:07:37;99567.88;;;13.16;57.83
65534;BME280;53640;55.838;37.184;2023-09-19T06:10:04;99570.50;;;13.23;57.64
65534;BME280;53640;55.838;37.184;2023-09-19T06:12:41;99536.53;;;13.02;57.79
65534;BME280;53640;55.838;37.184;2023-09-19T06:15:12;99569.69;;;13.23;57.62
65534;BME280;53640;55.838;37.184;2023-09-19T06:17:47;99536.28;;;13.04;58.00
65534;BME280;53640;55.838;37.184;2023-09-19T06:20:15;99554.44;;;13.22;57.48
65534;BME280;53640;55.838;37.184;2023-09-19T06:22:43;99578.41;;;13.43;58.00
65534;BME280;53640;55.838;37.184;2023-09-19T06:25:11;99544.69;;;13.32;57.65
65534;BME280;53640;55.838;37.184;2023-09-19T06:27:38;99568.03;;;13.52;57.13
65534;BME280;53640;55.838;37.184;2023-09-19T06:30:09;99573.47;;;13.52;57.00
65534;BME280;53640;55.838;37.184;2023-09-19T06:32:37;99565.44;;;13.57;57.18
65534;BME280;53640;55.838;37.184;2023-09-19T06:35:04;99567.81;;;13.65;57.34
65534;BME280;53640;55.838;37.184;2023-09-19T06:37:34;99563.44;;;13.64;57.07
65534;BME280;53640;55.838;37.184;2023-09-19T06:40:01;99553.84;;;13.61;57.06
65534;BME280;53640;55.838;37.184;2023-09-19T06:42:27;99552.66;;;13.69;57.04
65534;BME280;53640;55.838;37.184;2023-09-19T06:44:55;99531.03;;;13.62;57.11
65534;BME280;53640;55.838;37.184;2023-09-19T06:47:23;99574.19;;;14.01;57.21
65534;BME280;53640;55.838;37.184;2023-09-19T06:49:51;99526.13;;;13.83;56.22
65534;BME280;53640;55.838;37.184;2023-09-19T06:52:18;99565.31;;;14.17;56.50
65534;BME280;53640;55.838;37.184;2023-09-19T06:54:45;99550.97;;;14.10;55.82
65534;BME280;53640;55.838;37.184;2023-09-19T06:57:11;99525.56;;;13.92;56.02
65534;BME280;53640;55.838;37.184;2023-09-19T06:59:39;99557.28;;;14.22;55.85
65534;BME280;53640;55.838;37.184;2023-09-19T07:02:08;99551.94;;;14.27;55.64
65534;BME280;53640;55.838;37.184;2023-09-19T07:04:35;99508.88;;;14.01;55.87
65534;BME280;53640;55.838;37.184;2023-09-19T07:07:01;99534.16;;;14.25;55.62
65534;BME280;53640;55.838;37.184;2023-09-19T07:09:27;99531.22;;;14.38;55.85
65534;BME280;53640;55.838;37.184;2023-09-19T07:11:54;99542.06;;;14.61;55.39
65534;BME280;53640;55.838;37.184;2023-09-19T07:14:20;99534.50;;;14.75;54.94
65534;BME280;53640;55.838;37.184;2023-09-19T07:16:46;99543.16;;;15.01;54.25
65534;BME280;53640;55.838;37.184;2023-09-19T07:19:13;99534.78;;;15.19;54.36
65534;BME280;53640;55.838;37.184;2023-09-19T07:21:41;99508.06;;;15.33;53.71
65534;BME280;53640;55.838;37.184;2023-09-19T07:24:08;99513.03;;;15.36;52.42
65534;BME280;53640;55.838;37.184;2023-09-19T07:26:34;99543.84;;;15.65;52.57
65534;BME280;53640;55.838;37.184;2023-09-19T07:29:00;99461.28;;;15.24;52.12
65534;BME280;53640;55.838;37.184;2023-09-19T07:31:30;99536.22;;;15.67;52.04
65534;BME280;53640;55.838;37.184;2023-09-19T07:33:56;99549.16;;;15.89;51.51
65534;BME280;53640;55.838;37.184;2023-09-19T07:36:23;99568.34;;;16.10;50.97
65534;BME280;53640;55.838;37.184;2023-09-19T07:38:50;99534.81;;;16.15;50.84
65534;BME280;53640;55.838;37.184;2023-09-19T07:41:16;99527.13;;;16.12;50.52
65534;BME280;53640;55.838;37.184;2023-09-19T07:43:42;99508.25;;;16.10;49.59
65534;BME280;53640;55.838;37.184;2023-09-19T07:46:10;99541.81;;;16.28;50.39
65534;BME280;53640;55.838;37.184;2023-09-19T07:48:37;99549.13;;;16.22;50.07
65534;BME280;53640;55.838;37.184;2023-09-19T07:51:08;99509.34;;;15.93;50.20
65534;BME280;53640;55.838;37.184;2023-09-19T07:53:36;99516.28;;;15.83;50.44
65534;BME280;53640;55.838;37.184;2023-09-19T07:56:07;99547.09;;;15.96;50.27
65534;BME280;53640;55.838;37.184;2023-09-19T07:58:34;99502.41;;;15.68;50.41
65534;BME280;53640;55.838;37.184;2023-09-19T08:01:08;99491.41;;;15.63;50.86
65534;BME280;53640;55.838;37.184;2023-09-19T08:03:39;99501.00;;;15.66;50.68
65534;BME280;53640;55.838;37.184;2023-09-19T08:06:09;99491.75;;;15.50;50.82
65534;BME280;53640;55.838;37.184;2023-09-19T08:08:37;99511.25;;;15.58;50.92
65534;BME280;53640;55.838;37.184;2023-09-19T08:11:04;99522.41;;;15.57;51.50
65534;BME280;53640;55.838;37.184;2023-09-19T08:13:41;99490.19;;;15.25;51.19
65534;BME280;53640;55.838;37.184;2023-09-19T08:16:10;99523.44;;;15.39;51.64
65534;BME280;53640;55.838;37.184;2023-09-19T08:18:37;99526.06;;;15.34;51.67
65534;BME280;53640;55.838;37.184;2023-09-19T08:21:06;99492.63;;;15.10;51.89
65534;BME280;53640;55.838;37.184;2023-09-19T08:23:37;99492.44;;;15.00;52.20
65534;BME280;53640;55.838;37.184;2023-09-19T08:26:04;99485.91;;;15.01;51.76
65534;BME280;53640;55.838;37.184;2023-09-19T08:28:35;99508.50;;;15.13;52.03
65534;BME280;53640;55.838;37.184;2023-09-19T08:31:05;99524.22;;;15.23;52.08
65534;BME280;53640;55.838;37.184;2023-09-19T08:33:35;99520.78;;;15.27;51.99
65534;BME280;53640;55.838;37.184;2023-09-19T08:36:03;99469.06;;;15.04;52.27
65534;BME280;53640;55.838;37.184;2023-09-19T08:38:34;99477.44;;;15.14;51.92
65534;BME280;53640;55.838;37.184;2023-09-19T08:41:05;99500.63;;;15.28;52.05
65534;BME280;53640;55.838;37.184;2023-09-19T08:43:32;99499.13;;;15.21;52.11
65534;BME280;53640;55.838;37.184;2023-09-19T08:46:11;99508.06;;;15.33;51.56
65534;BME280;53640;55.838;37.184;2023-09-19T08:51:45;99526.13;;;15.51;52.05
65534;BME280;53640;55.838;37.184;2023-09-19T08:54:29;99515.22;;;15.51;52.24
65534;BME280;53640;55.838;37.184;2023-09-19T08:57:06;99515.97;;;15.63;51.94
65534;BME280;53640;55.838;37.184;2023-09-19T08:59:38;99511.75;;;15.72;51.82
65534;BME280;53640;55.838;37.184;2023-09-19T09:02:12;99477.69;;;15.58;51.44
65534;BME280;53640;55.838;37.184;2023-09-19T09:04:43;99471.81;;;15.66;51.06
65534;BME280;53640;55.838;37.184;2023-09-19T09:07:13;99513.63;;;16.05;51.05
65534;BME280;53640;55.838;37.184;2023-09-19T09:09:40;99495.50;;;16.16;50.80
65534;BME280;53640;55.838;37.184;2023-09-19T09:12:14;99493.94;;;16.59;50.31
65534;BME280;53640;55.838;37.184;2023-09-19T09:14:47;99462.25;;;17.12;50.18
65534;BME280;53640;55.838;37.184;2023-09-19T09:17:14;99492.75;;;17.90;48.33
65534;BME280;53640;55.838;37.184;2023-09-19T09:19:41;99458.88;;;18.54;46.76
65534;BME280;53640;55.838;37.184;2023-09-19T09:22:09;99486.75;;;18.98;45.87
65534;BME280;53640;55.838;37.184;2023-09-19T09:24:36;99409.00;;;18.52;44.84
65534;BME280;53640;55.838;37.184;2023-09-19T09:27:06;99499.44;;;19.15;44.87
65534;BME280;53640;55.838;37.184;2023-09-19T09:29:49;99490.38;;;19.24;44.92
65534;BME280;53640;55.838;37.184;2023-09-19T09:32:27;99466.22;;;19.21;44.69
65534;BME280;53640;55.838;37.184;2023-09-19T09:34:56;99477.53;;;19.40;43.77
65534;BME280;53640;55.838;37.184;2023-09-19T09:37:24;99444.03;;;19.43;42.80
65534;BME280;53640;55.838;37.184;2023-09-19T09:39:54;99470.13;;;19.66;43.16
65534;BME280;53640;55.838;37.184;2023-09-19T09:42:33;99466.78;;;20.00;43.46
65534;BME280;53640;55.838;37.184;2023-09-19T09:45:15;99442.56;;;20.28;42.56
65534;BME280;53640;55.838;37.184;2023-09-19T09:47:44;99456.53;;;21.01;41.72
65534;BME280;53640;55.838;37.184;2023-09-19T09:50:35;99452.31;;;21.53;39.24
65534;BME280;53640;55.838;37.184;2023-09-19T09:56:07;99438.75;;;22.63;38.59
65534;BME280;53640;55.838;37.184;2023-09-19T09:58:37;99455.72;;;23.32;37.11
65534;BME280;53640;55.838;37.184;2023-09-19T10:01:06;99456.72;;;23.74;36.12
65534;BME280;53640;55.838;37.184;2023-09-19T10:03:39;99449.34;;;24.29;36.08
65534;BME280;53640;55.838;37.184;2023-09-19T10:06:07;99419.50;;;24.54;35.20
65534;BME280;53640;55.838;37.184;2023-09-19T10:09:07;99443.69;;;25.12;34.60
65534;BME280;53640;55.838;37.184;2023-09-19T10:11:47;99442.88;;;25.48;33.58
65534;BME280;53640;55.838;37.184;2023-09-19T10:14:24;99442.09;;;25.79;33.56
65534;BME280;53640;55.838;37.184;2023-09-19T10:16:53;99434.25;;;26.03;33.28
65534;BME280;53640;55.838;37.184;2023-09-19T10:19:42;99438.19;;;26.51;31.93
65534;BME280;53640;55.838;37.184;2023-09-19T10:22:14;99422.03;;;26.70;31.43
65534;BME280;53640;55.838;37.184;2023-09-19T10:24:47;99443.38;;;27.18;30.90
65534;BME280;53640;55.838;37.184;2023-09-19T10:27:19;99427.84;;;27.17;29.85
65534;BME280;53640;55.838;37.184;2023-09-19T10:29:49;99432.09;;;27.32;29.15
65534;BME280;53640;55.838;37.184;2023-09-19T10:32:18;99440.09;;;27.33;29.58
65534;BME280;53640;55.838;37.184;2023-09-19T10:34:49;99442.38;;;27.49;29.61
65534;BME280;53640;55.838;37.184;2023-09-19T10:37:20;99437.94;;;27.74;28.41
65534;BME280;53640;55.838;37.184;2023-09-19T10:39:49;99443.31;;;27.79;29.31
65534;BME280;53640;55.838;37.184;2023-09-19T10:42:19;99430.69;;;27.99;29.06
65534;BME280;53640;55.838;37.184;2023-09-19T10:44:51;99431.56;;;28.20;28.59
65534;BME280;53640;55.838;37.184;2023-09-19T10:47:21;99407.66;;;28.19;28.46
65534;BME280;53640;55.838;37.184;2023-09-19T10:49:50;99434.97;;;28.64;28.72
65534;BME280;53640;55.838;37.184;2023-09-19T10:52:20;99404.91;;;28.49;27.05
65534;BME280;53640;55.838;37.184;2023-09-19T10:54:51;99412.81;;;28.68;27.32
65534;BME280;53640;55.838;37.184;2023-09-19T10:57:21;99426.44;;;28.90;27.39
65534;BME280;53640;55.838;37.184;2023-09-19T11:00:07;99406.09;;;28.90;27.01
65534;BME280;53640;55.838;37.184;2023-09-19T11:05:39;99385.50;;;29.24;27.25
65534;BME280;53640;55.838;37.184;2023-09-19T11:08:07;99387.53;;;29.48;27.17
65534;BME280;53640;55.838;37.184;2023-09-19T11:10:48;99385.72;;;29.52;26.28
65534;BME280;53640;55.838;37.184;2023-09-19T11:13:25;99386.38;;;29.82;26.56
65534;BME280;53640;55.838;37.184;2023-09-19T11:26:48;99369.63;;;30.68;25.69
65534;BME280;53640;55.838;37.184;2023-09-19T11:29:28;99373.72;;;30.09;25.72
65534;BME280;53640;55.838;37.184;2023-09-19T11:31:56;99336.16;;;29.37;26.13
65534;BME280;53640;55.838;37.184;2023-09-19T11:40:06;99343.59;;;27.89;28.38
65534;BME280;53640;55.838;37.184;2023-09-19T11:42:47;99345.47;;;27.77;28.88
65534;BME280;53640;55.838;37.184;2023-09-19T11:48:32;99355.78;;;28.15;28.75
65534;BME280;53640;55.838;37.184;2023-09-19T11:50:59;99348.56;;;28.43;29.04
65534;BME280;53640;55.838;37.184;2023-09-19T11:53:31;99325.22;;;28.77;27.88
65534;BME280;53640;55.838;37.184;2023-09-19T11:55:59;99345.91;;;29.30;27.33
65534;BME280;53640;55.838;37.184;2023-09-19T11:58:27;99343.44;;;29.74;27.48
65534;BME280;53640;55.838;37.184;2023-09-19T12:00:56;99312.75;;;29.87;26.77
65534;BME280;53640;55.838;37.184;2023-09-19T12:03:29;99326.59;;;30.20;26.69
65534;BME280;53640;55.838;37.184;2023-09-19T12:05:58;99327.50;;;30.48;26.27
65534;BME280;53640;55.838;37.184;2023-09-19T12:08:25;99299.88;;;30.71;25.82
65534;BME280;53640;55.838;37.184;2023-09-19T12:10:53;99333.13;;;31.17;25.56
65534;BME280;53640;55.838;37.184;2023-09-19T12:13:21;99286.19;;;31.10;26.14
65534;BME280;53640;55.838;37.184;2023-09-19T12:15:47;99298.13;;;31.23;25.55
65534;BME280;53640;55.838;37.184;2023-09-19T12:18:29;99285.41;;;30.82;25.40
65534;BME280;53640;55.838;37.184;2023-09-19T12:20:56;99283.16;;;30.47;25.54
65534;BME280;53640;55.838;37.184;2023-09-19T12:23:25;99282.41;;;30.22;25.99
65534;BME280;53640;55.838;37.184;2023-09-19T12:25:54;99298.69;;;29.95;26.40
65534;BME280;53640;55.838;37.184;2023-09-19T12:28:26;99295.91;;;29.71;26.96
65534;BME280;53640;55.838;37.184;2023-09-19T12:30:53;99278.75;;;29.48;26.96
65534;BME280;53640;55.838;37.184;2023-09-19T12:33:21;99303.22;;;29.75;27.21
65534;BME280;53640;55.838;37.184;2023-09-19T12:35:53;99279.25;;;29.87;26.33
65534;BME280;53640;55.838;37.184;2023-09-19T12:38:26;99299.72;;;30.27;26.30
65534;BME280;53640;55.838;37.184;2023-09-19T12:40:58;99304.34;;;30.48;26.01
65534;BME280;53640;55.838;37.184;2023-09-19T12:43:28;99284.50;;;30.65;26.07
65534;BME280;53640;55.838;37.184;2023-09-19T12:45:58;99275.91;;;30.58;26.36
65534;BME280;53640;55.838;37.184;2023-09-19T12:48:26;99292.59;;;30.55;26.16
65534;BME280;53640;55.838;37.184;2023-09-19T12:51:06;99291.25;;;30.12;25.80
65534;BME280;53640;55.838;37.184;2023-09-19T12:53:57;99297.19;;;29.73;24.49
65534;BME280;53640;55.838;37.184;2023-09-19T12:56:23;99289.75;;;29.65;24.46
65534;BME280;53640;55.838;37.184;2023-09-19T12:58:57;99293.63;;;29.40;24.31
65534;BME280;53640;55.838;37.184;2023-09-19T13:01:29;99265.38;;;28.96;24.58
65534;BME280;53640;55.838;37.184;2023-09-19T13:06:52;99269.44;;;28.44;24.99
65534;BME280;53640;55.838;37.184;2023-09-19T13:09:21;99283.81;;;28.04;25.53
65534;BME280;53640;55.838;37.184;2023-09-19T13:11:48;99276.75;;;27.77;26.08
65534;BME280;53640;55.838;37.184;2023-09-19T13:14:26;99286.00;;;27.52;26.16
65534;BME280;53640;55.838;37.184;2023-09-19T13:17:05;99269.88;;;27.28;26.41
65534;BME280;53640;55.838;37.184;2023-09-19T13:19:51;99269.31;;;27.05;26.20
65534;BME280;53640;55.838;37.184;2023-09-19T13:25:16;99251.63;;;27.01;26.69
65534;BME280;53640;55.838;37.184;2023-09-19T13:27:56;99263.53;;;27.19;26.06
65534;BME280;53640;55.838;37.184;2023-09-19T13:30:25;99248.34;;;27.16;25.96
65534;BME280;53640;55.838;37.184;2023-09-19T13:33:05;99248.78;;;27.27;26.48
65534;BME280;53640;55.838;37.184;2023-09-19T13:35:36;99262.75;;;27.56;26.02
65534;BME280;53640;55.838;37.184;2023-09-19T13:38:09;99255.09;;;27.83;25.71
65534;BME280;53640;55.838;37.184;2023-09-19T13:40:35;99247.34;;;27.97;25.44
65534;BME280;53640;55.838;37.184;2023-09-19T13:43:03;99234.66;;;28.08;26.10
65534;BME280;53640;55.838;37.184;2023-09-19T13:45:29;99258.56;;;28.30;25.38
65534;BME280;53640;55.838;37.184;2023-09-19T13:47:56;99242.88;;;28.05;25.26
65534;BME280;53640;55.838;37.184;2023-09-19T13:50:23;99242.09;;;27.66;25.30
65534;BME280;53640;55.838;37.184;2023-09-19T13:52:52;99251.69;;;27.39;26.06
65534;BME280;53640;55.838;37.184;2023-09-19T13:55:20;99235.13;;;27.04;26.63
65534;BME280;53640;55.838;37.184;2023-09-19T13:57:47;99216.41;;;26.58;26.79
65534;BME280;53640;55.838;37.184;2023-09-19T14:00:18;99240.69;;;26.17;27.00